SAS96M ESSA-ESMS
Flight info
| Callsign | SAS96M |
|---|---|
| Flight time | 0h 51m |
| Altitude | 38000 |
| Route | NOSLI N850 ABAMA DCT RASMU |
| Aircraft | B736/M-SDE2E3FGHIRWXY/LB1 |
Departure
| Time | 2026-04-22 20:52 |
|---|---|
| Airport | Stockholm-Arlanda Airport (ESSA) |
Arrival
| Time | 2026-04-22 21:43 |
|---|---|
| Airport | Malmö Sturup Airport (ESMS) |
| Time | Latitude | Longitude | Altitude | Speed | Heading |
|---|---|---|---|---|---|
| 2026-04-22 20:35 | 59.65309 | 17.93832 | 111 ft | 0 kts | 256° |
| 2026-04-22 20:42 | 59.65310 | 17.93837 | 111 ft | 2 kts | 256° |
| 2026-04-22 20:42 | 59.65314 | 17.93872 | 111 ft | 3 kts | 252° |
| 2026-04-22 20:42 | 59.65321 | 17.93908 | 109 ft | 3 kts | 242° |
| 2026-04-22 20:43 | 59.65332 | 17.93942 | 110 ft | 3 kts | 231° |
| 2026-04-22 20:43 | 59.65345 | 17.93971 | 111 ft | 3 kts | 224° |
| 2026-04-22 20:43 | 59.65353 | 17.93989 | 109 ft | 1 kts | 256° |
| 2026-04-22 20:43 | 59.65353 | 17.93990 | 109 ft | 1 kts | 256° |
| 2026-04-22 20:46 | 59.65351 | 17.93972 | 111 ft | 4 kts | 267° |
| 2026-04-22 20:46 | 59.65396 | 17.93940 | 111 ft | 8 kts | 354° |
| 2026-04-22 20:46 | 59.65460 | 17.93917 | 111 ft | 11 kts | 346° |
| 2026-04-22 20:47 | 59.65541 | 17.93879 | 112 ft | 13 kts | 347° |
| 2026-04-22 20:47 | 59.65592 | 17.93776 | 113 ft | 13 kts | 262° |
| 2026-04-22 20:47 | 59.65562 | 17.93552 | 111 ft | 20 kts | 256° |
| 2026-04-22 20:47 | 59.65530 | 17.93262 | 110 ft | 23 kts | 259° |
| 2026-04-22 20:48 | 59.65484 | 17.92951 | 110 ft | 23 kts | 249° |
| 2026-04-22 20:48 | 59.65417 | 17.92666 | 110 ft | 23 kts | 236° |
| 2026-04-22 20:48 | 59.65296 | 17.92456 | 110 ft | 23 kts | 205° |
| 2026-04-22 20:48 | 59.65148 | 17.92367 | 111 ft | 22 kts | 190° |
| 2026-04-22 20:49 | 59.64985 | 17.92308 | 111 ft | 25 kts | 191° |
| 2026-04-22 20:49 | 59.64818 | 17.92244 | 111 ft | 23 kts | 191° |
| 2026-04-22 20:49 | 59.64664 | 17.92191 | 111 ft | 19 kts | 189° |
| 2026-04-22 20:49 | 59.64539 | 17.92146 | 111 ft | 18 kts | 191° |
| 2026-04-22 20:50 | 59.64434 | 17.92107 | 113 ft | 13 kts | 191° |
| 2026-04-22 20:50 | 59.64397 | 17.92018 | 112 ft | 10 kts | 283° |
| 2026-04-22 20:50 | 59.64438 | 17.91910 | 110 ft | 10 kts | 313° |
| 2026-04-22 20:50 | 59.64496 | 17.91812 | 108 ft | 12 kts | 337° |
| 2026-04-22 20:51 | 59.64581 | 17.91759 | 106 ft | 14 kts | 343° |
| 2026-04-22 20:51 | 59.64699 | 17.91715 | 107 ft | 25 kts | 357° |
| 2026-04-22 20:51 | 59.65029 | 17.91800 | 103 ft | 83 kts | 11° |
| 2026-04-22 20:51 | 59.65808 | 17.92061 | 180 ft | 134 kts | 8° |
| 2026-04-22 20:52 | 59.66735 | 17.92363 | 864 ft | 135 kts | 6° |
| 2026-04-22 20:52 | 59.67660 | 17.92570 | 1705 ft | 132 kts | 0° |
| 2026-04-22 20:52 | 59.68558 | 17.91983 | 2264 ft | 160 kts | 324° |
| 2026-04-22 20:52 | 59.68990 | 17.89658 | 2731 ft | 205 kts | 280° |
| 2026-04-22 20:53 | 59.68909 | 17.86777 | 3412 ft | 216 kts | 275° |
| 2026-04-22 20:53 | 59.68402 | 17.83742 | 3678 ft | 264 kts | 239° |
| 2026-04-22 20:53 | 59.66970 | 17.81154 | 4269 ft | 288 kts | 219° |
| 2026-04-22 20:53 | 59.65334 | 17.78856 | 5372 ft | 287 kts | 218° |
| 2026-04-22 20:54 | 59.63701 | 17.76581 | 6489 ft | 287 kts | 220° |
| 2026-04-22 20:54 | 59.62048 | 17.74243 | 7370 ft | 296 kts | 220° |
| 2026-04-22 20:54 | 59.60360 | 17.71808 | 8216 ft | 304 kts | 221° |
| 2026-04-22 20:54 | 59.58663 | 17.69328 | 9103 ft | 310 kts | 221° |
| 2026-04-22 20:55 | 59.56916 | 17.66747 | 9966 ft | 318 kts | 222° |
| 2026-04-22 20:55 | 59.55115 | 17.64064 | 10554 ft | 334 kts | 221° |
| 2026-04-22 20:55 | 59.53184 | 17.61162 | 10790 ft | 361 kts | 221° |
| 2026-04-22 20:55 | 59.51172 | 17.58140 | 11362 ft | 373 kts | 221° |
| 2026-04-22 20:56 | 59.49084 | 17.55008 | 12163 ft | 379 kts | 221° |
| 2026-04-22 20:56 | 59.46963 | 17.51831 | 13027 ft | 384 kts | 221° |
| 2026-04-22 20:56 | 59.44848 | 17.48662 | 13866 ft | 389 kts | 221° |
| 2026-04-22 20:56 | 59.42671 | 17.45402 | 14624 ft | 395 kts | 221° |
| 2026-04-22 20:57 | 59.40477 | 17.42119 | 15436 ft | 399 kts | 221° |
| 2026-04-22 20:57 | 59.38253 | 17.38794 | 16253 ft | 403 kts | 222° |
| 2026-04-22 20:57 | 59.36003 | 17.35435 | 17053 ft | 408 kts | 222° |
| 2026-04-22 20:57 | 59.33722 | 17.32034 | 17850 ft | 414 kts | 222° |
| 2026-04-22 20:58 | 59.31447 | 17.28648 | 18589 ft | 419 kts | 222° |
| 2026-04-22 20:58 | 59.29100 | 17.25165 | 19254 ft | 424 kts | 221° |
| 2026-04-22 20:58 | 59.26727 | 17.21646 | 19915 ft | 430 kts | 221° |
| 2026-04-22 20:58 | 59.24320 | 17.18080 | 20546 ft | 436 kts | 221° |
| 2026-04-22 20:59 | 59.21910 | 17.14517 | 21177 ft | 442 kts | 221° |
| 2026-04-22 20:59 | 59.19436 | 17.10866 | 21816 ft | 448 kts | 221° |
| 2026-04-22 20:59 | 59.16924 | 17.07168 | 22428 ft | 454 kts | 221° |
| 2026-04-22 20:59 | 59.14388 | 17.03440 | 23042 ft | 460 kts | 221° |
| 2026-04-22 21:00 | 59.11820 | 16.99668 | 23646 ft | 465 kts | 221° |
| 2026-04-22 21:00 | 59.09243 | 16.95889 | 24168 ft | 470 kts | 221° |
| 2026-04-22 21:00 | 59.06619 | 16.92058 | 24737 ft | 473 kts | 221° |
| 2026-04-22 21:00 | 59.03982 | 16.88220 | 25412 ft | 473 kts | 220° |
| 2026-04-22 21:01 | 59.01341 | 16.84385 | 26020 ft | 475 kts | 220° |
| 2026-04-22 21:01 | 58.98679 | 16.80522 | 26530 ft | 480 kts | 220° |
| 2026-04-22 21:01 | 58.95984 | 16.76617 | 27046 ft | 484 kts | 220° |
| 2026-04-22 21:01 | 58.93307 | 16.72744 | 27563 ft | 487 kts | 220° |
| 2026-04-22 21:02 | 58.90576 | 16.68812 | 28090 ft | 489 kts | 219° |
| 2026-04-22 21:02 | 58.87835 | 16.64870 | 28671 ft | 491 kts | 220° |
| 2026-04-22 21:02 | 58.86019 | 16.62257 | 29002 ft | 493 kts | 220° |
| 2026-04-22 21:02 | 58.83247 | 16.58272 | 29441 ft | 497 kts | 219° |
| 2026-04-22 21:03 | 58.79544 | 16.52959 | 30004 ft | 503 kts | 219° |
| 2026-04-22 21:03 | 58.77634 | 16.50225 | 30265 ft | 505 kts | 219° |
| 2026-04-22 21:03 | 58.74831 | 16.46225 | 30632 ft | 508 kts | 219° |
| 2026-04-22 21:03 | 58.71975 | 16.42157 | 31006 ft | 511 kts | 219° |
| 2026-04-22 21:04 | 58.69110 | 16.38086 | 31355 ft | 513 kts | 219° |
| 2026-04-22 21:04 | 58.66225 | 16.33995 | 31690 ft | 516 kts | 219° |
| 2026-04-22 21:04 | 58.63327 | 16.29896 | 32121 ft | 516 kts | 219° |
| 2026-04-22 21:04 | 58.60472 | 16.25872 | 32630 ft | 513 kts | 219° |
| 2026-04-22 21:05 | 58.57590 | 16.21817 | 33162 ft | 511 kts | 219° |
| 2026-04-22 21:05 | 58.54728 | 16.17797 | 33669 ft | 509 kts | 218° |
| 2026-04-22 21:05 | 58.51870 | 16.13788 | 34102 ft | 508 kts | 218° |
| 2026-04-22 21:05 | 58.49008 | 16.09779 | 34429 ft | 509 kts | 218° |
| 2026-04-22 21:06 | 58.46187 | 16.05835 | 34761 ft | 509 kts | 218° |
| 2026-04-22 21:06 | 58.43318 | 16.01831 | 35129 ft | 508 kts | 218° |
| 2026-04-22 21:06 | 58.40459 | 15.97852 | 35485 ft | 507 kts | 218° |
| 2026-04-22 21:06 | 58.37601 | 15.93881 | 35810 ft | 507 kts | 218° |
| 2026-04-22 21:07 | 58.34780 | 15.89969 | 36137 ft | 507 kts | 218° |
| 2026-04-22 21:07 | 58.31920 | 15.86012 | 36441 ft | 507 kts | 218° |
| 2026-04-22 21:07 | 58.29055 | 15.82056 | 36695 ft | 508 kts | 217° |
| 2026-04-22 21:07 | 58.26190 | 15.78107 | 36990 ft | 508 kts | 217° |
| 2026-04-22 21:08 | 58.23323 | 15.74166 | 37341 ft | 507 kts | 217° |
| 2026-04-22 21:08 | 58.20467 | 15.70247 | 37728 ft | 505 kts | 217° |
| 2026-04-22 21:08 | 58.17630 | 15.66363 | 38105 ft | 502 kts | 217° |
| 2026-04-22 21:08 | 58.14782 | 15.62469 | 38140 ft | 507 kts | 217° |
| 2026-04-22 21:09 | 58.09074 | 15.54690 | 38140 ft | 507 kts | 217° |
| 2026-04-22 21:09 | 58.03385 | 15.46975 | 38127 ft | 498 kts | 216° |
| 2026-04-22 21:10 | 57.97787 | 15.39407 | 38142 ft | 496 kts | 216° |
| 2026-04-22 21:10 | 57.92175 | 15.31847 | 38146 ft | 495 kts | 216° |
| 2026-04-22 21:11 | 57.86556 | 15.24308 | 38158 ft | 495 kts | 216° |
| 2026-04-22 21:11 | 57.80967 | 15.16841 | 38155 ft | 496 kts | 216° |
| 2026-04-22 21:12 | 57.75324 | 15.09332 | 38159 ft | 497 kts | 216° |
| 2026-04-22 21:12 | 57.69671 | 15.01838 | 38154 ft | 498 kts | 216° |
| 2026-04-22 21:13 | 57.64002 | 14.94353 | 38159 ft | 499 kts | 216° |
| 2026-04-22 21:13 | 57.58322 | 14.86881 | 38149 ft | 499 kts | 215° |
| 2026-04-22 21:14 | 57.52675 | 14.79482 | 38159 ft | 499 kts | 215° |
| 2026-04-22 21:14 | 57.46996 | 14.72070 | 38163 ft | 497 kts | 215° |
| 2026-04-22 21:15 | 57.41327 | 14.64699 | 38162 ft | 496 kts | 214° |
| 2026-04-22 21:15 | 57.38487 | 14.61017 | 37931 ft | 498 kts | 214° |
| 2026-04-22 21:15 | 57.35676 | 14.57380 | 37649 ft | 496 kts | 214° |
| 2026-04-22 21:16 | 57.32862 | 14.53747 | 37375 ft | 490 kts | 214° |
| 2026-04-22 21:16 | 57.30066 | 14.50142 | 37104 ft | 489 kts | 214° |
| 2026-04-22 21:16 | 57.27260 | 14.46532 | 36845 ft | 489 kts | 214° |
| 2026-04-22 21:16 | 57.24484 | 14.42968 | 36582 ft | 490 kts | 214° |
| 2026-04-22 21:17 | 57.21673 | 14.39365 | 36322 ft | 490 kts | 214° |
| 2026-04-22 21:17 | 57.18859 | 14.35767 | 36060 ft | 491 kts | 214° |
| 2026-04-22 21:17 | 57.16048 | 14.32180 | 35811 ft | 491 kts | 214° |
| 2026-04-22 21:17 | 57.13269 | 14.28637 | 35562 ft | 491 kts | 214° |
| 2026-04-22 21:18 | 57.10455 | 14.25055 | 35327 ft | 492 kts | 213° |
| 2026-04-22 21:18 | 57.07637 | 14.21475 | 35085 ft | 491 kts | 213° |
| 2026-04-22 21:18 | 57.04822 | 14.17906 | 34847 ft | 491 kts | 213° |
| 2026-04-22 21:18 | 57.02008 | 14.14346 | 34607 ft | 491 kts | 213° |
| 2026-04-22 21:19 | 56.99188 | 14.10786 | 34374 ft | 491 kts | 213° |
| 2026-04-22 21:19 | 56.96375 | 14.07241 | 34130 ft | 490 kts | 213° |
| 2026-04-22 21:19 | 56.93559 | 14.03698 | 33536 ft | 490 kts | 213° |
| 2026-04-22 21:19 | 56.90741 | 14.00160 | 32815 ft | 488 kts | 213° |
| 2026-04-22 21:20 | 56.87996 | 13.96718 | 32220 ft | 483 kts | 213° |
| 2026-04-22 21:20 | 56.85231 | 13.93257 | 31628 ft | 479 kts | 213° |
| 2026-04-22 21:20 | 56.82496 | 13.89840 | 31041 ft | 474 kts | 213° |
| 2026-04-22 21:20 | 56.79767 | 13.86436 | 30466 ft | 470 kts | 213° |
| 2026-04-22 21:21 | 56.77073 | 13.83084 | 29827 ft | 466 kts | 213° |
| 2026-04-22 21:21 | 56.74415 | 13.79739 | 29294 ft | 460 kts | 215° |
| 2026-04-22 21:21 | 56.71863 | 13.76302 | 28813 ft | 453 kts | 217° |
| 2026-04-22 21:21 | 56.69404 | 13.72882 | 28267 ft | 448 kts | 217° |
| 2026-04-22 21:22 | 56.66924 | 13.69429 | 27679 ft | 445 kts | 217° |
| 2026-04-22 21:22 | 56.64488 | 13.66075 | 27114 ft | 441 kts | 217° |
| 2026-04-22 21:22 | 56.62031 | 13.62732 | 26567 ft | 438 kts | 217° |
| 2026-04-22 21:22 | 56.59588 | 13.59460 | 26011 ft | 435 kts | 213° |
| 2026-04-22 21:23 | 56.56873 | 13.57135 | 25439 ft | 430 kts | 194° |
| 2026-04-22 21:23 | 56.53948 | 13.56371 | 24919 ft | 422 kts | 178° |
| 2026-04-22 21:23 | 56.51022 | 13.56353 | 24351 ft | 420 kts | 177° |
| 2026-04-22 21:23 | 56.48105 | 13.56414 | 23793 ft | 418 kts | 176° |
| 2026-04-22 21:24 | 56.45197 | 13.56484 | 23154 ft | 416 kts | 177° |
| 2026-04-22 21:24 | 56.42313 | 13.56536 | 22581 ft | 413 kts | 177° |
| 2026-04-22 21:24 | 56.39483 | 13.56566 | 22022 ft | 410 kts | 178° |
| 2026-04-22 21:24 | 56.36643 | 13.56580 | 21489 ft | 407 kts | 178° |
| 2026-04-22 21:25 | 56.33819 | 13.56585 | 20960 ft | 404 kts | 178° |
| 2026-04-22 21:25 | 56.31019 | 13.56584 | 20444 ft | 401 kts | 179° |
| 2026-04-22 21:25 | 56.28238 | 13.56581 | 19926 ft | 398 kts | 179° |
| 2026-04-22 21:25 | 56.25469 | 13.56578 | 19404 ft | 396 kts | 179° |
| 2026-04-22 21:26 | 56.22705 | 13.56574 | 18879 ft | 395 kts | 179° |
| 2026-04-22 21:26 | 56.19990 | 13.56571 | 18333 ft | 393 kts | 179° |
| 2026-04-22 21:26 | 56.17255 | 13.56569 | 17760 ft | 391 kts | 179° |
| 2026-04-22 21:26 | 56.14536 | 13.56566 | 17220 ft | 388 kts | 180° |
| 2026-04-22 21:27 | 56.11836 | 13.56563 | 16695 ft | 386 kts | 180° |
| 2026-04-22 21:27 | 56.09157 | 13.56561 | 16176 ft | 383 kts | 180° |
| 2026-04-22 21:27 | 56.06533 | 13.56558 | 15672 ft | 380 kts | 180° |
| 2026-04-22 21:27 | 56.03894 | 13.56556 | 15174 ft | 377 kts | 180° |
| 2026-04-22 21:28 | 56.01274 | 13.56553 | 14669 ft | 375 kts | 181° |
| 2026-04-22 21:28 | 55.98660 | 13.56550 | 14153 ft | 374 kts | 181° |
| 2026-04-22 21:28 | 55.96059 | 13.56548 | 13591 ft | 373 kts | 181° |
| 2026-04-22 21:28 | 55.93469 | 13.56545 | 13063 ft | 370 kts | 181° |
| 2026-04-22 21:29 | 55.90907 | 13.56543 | 12549 ft | 367 kts | 181° |
| 2026-04-22 21:29 | 55.88353 | 13.56540 | 12038 ft | 365 kts | 181° |
| 2026-04-22 21:29 | 55.85823 | 13.56537 | 11539 ft | 363 kts | 181° |
| 2026-04-22 21:29 | 55.83307 | 13.56535 | 11042 ft | 360 kts | 181° |
| 2026-04-22 21:30 | 55.80838 | 13.56532 | 10668 ft | 355 kts | 181° |
| 2026-04-22 21:30 | 55.78417 | 13.56531 | 10512 ft | 342 kts | 181° |
| 2026-04-22 21:30 | 55.76071 | 13.56530 | 10353 ft | 331 kts | 181° |
| 2026-04-22 21:30 | 55.73801 | 13.56528 | 10199 ft | 321 kts | 181° |
| 2026-04-22 21:31 | 55.71600 | 13.56526 | 10038 ft | 311 kts | 181° |
| 2026-04-22 21:31 | 55.69404 | 13.56522 | 9540 ft | 315 kts | 181° |
| 2026-04-22 21:31 | 55.67206 | 13.56517 | 9122 ft | 315 kts | 181° |
| 2026-04-22 21:31 | 55.65020 | 13.56514 | 8764 ft | 313 kts | 181° |
| 2026-04-22 21:32 | 55.62873 | 13.56512 | 8416 ft | 311 kts | 181° |
| 2026-04-22 21:32 | 55.60711 | 13.56509 | 8075 ft | 309 kts | 181° |
| 2026-04-22 21:32 | 55.58573 | 13.56507 | 7739 ft | 306 kts | 181° |
| 2026-04-22 21:32 | 55.56450 | 13.56505 | 7419 ft | 304 kts | 181° |
| 2026-04-22 21:33 | 55.54335 | 13.56516 | 7075 ft | 301 kts | 180° |
| 2026-04-22 21:33 | 55.52247 | 13.56625 | 6820 ft | 296 kts | 179° |
| 2026-04-22 21:33 | 55.50200 | 13.56766 | 6581 ft | 292 kts | 179° |
| 2026-04-22 21:33 | 55.48186 | 13.56907 | 6324 ft | 288 kts | 179° |
| 2026-04-22 21:34 | 55.46217 | 13.57039 | 6084 ft | 285 kts | 179° |
| 2026-04-22 21:34 | 55.44230 | 13.57166 | 5727 ft | 285 kts | 179° |
| 2026-04-22 21:34 | 55.42273 | 13.57290 | 5456 ft | 274 kts | 180° |
| 2026-04-22 21:34 | 55.40408 | 13.57407 | 5217 ft | 261 kts | 180° |
| 2026-04-22 21:35 | 55.38625 | 13.57517 | 4973 ft | 251 kts | 180° |
| 2026-04-22 21:35 | 55.36912 | 13.57622 | 4765 ft | 248 kts | 180° |
| 2026-04-22 21:35 | 55.35199 | 13.57477 | 4541 ft | 244 kts | 200° |
| 2026-04-22 21:35 | 55.33821 | 13.55958 | 4362 ft | 229 kts | 234° |
| 2026-04-22 21:36 | 55.32937 | 13.53705 | 4196 ft | 221 kts | 249° |
| 2026-04-22 21:36 | 55.32244 | 13.51301 | 4019 ft | 220 kts | 251° |
| 2026-04-22 21:36 | 55.31865 | 13.48794 | 3817 ft | 207 kts | 279° |
| 2026-04-22 21:36 | 55.32254 | 13.46516 | 3806 ft | 193 kts | 304° |
| 2026-04-22 21:37 | 55.32860 | 13.44354 | 3720 ft | 201 kts | 299° |
| 2026-04-22 21:37 | 55.33677 | 13.42445 | 3641 ft | 190 kts | 330° |
| 2026-04-22 21:37 | 55.34902 | 13.41859 | 3630 ft | 178 kts | 348° |
| 2026-04-22 21:37 | 55.36043 | 13.41422 | 3478 ft | 161 kts | 347° |
| 2026-04-22 21:38 | 55.37098 | 13.41091 | 3277 ft | 150 kts | 349° |
| 2026-04-22 21:38 | 55.38124 | 13.40839 | 3087 ft | 148 kts | 350° |
| 2026-04-22 21:38 | 55.39149 | 13.40614 | 2874 ft | 149 kts | 350° |
| 2026-04-22 21:38 | 55.40199 | 13.40392 | 2672 ft | 153 kts | 351° |
| 2026-04-22 21:39 | 55.41263 | 13.40172 | 2449 ft | 153 kts | 351° |
| 2026-04-22 21:39 | 55.42304 | 13.39958 | 2246 ft | 152 kts | 351° |
| 2026-04-22 21:39 | 55.43353 | 13.39742 | 2036 ft | 149 kts | 351° |
| 2026-04-22 21:39 | 55.44318 | 13.39546 | 1868 ft | 127 kts | 349° |
| 2026-04-22 21:40 | 55.45147 | 13.39375 | 1674 ft | 114 kts | 349° |
| 2026-04-22 21:40 | 55.45927 | 13.39211 | 1512 ft | 112 kts | 349° |
| 2026-04-22 21:40 | 55.46715 | 13.39047 | 1363 ft | 116 kts | 349° |
| 2026-04-22 21:40 | 55.47520 | 13.38881 | 1205 ft | 116 kts | 349° |
| 2026-04-22 21:41 | 55.48304 | 13.38722 | 1041 ft | 115 kts | 349° |
| 2026-04-22 21:41 | 55.49107 | 13.38562 | 892 ft | 119 kts | 351° |
| 2026-04-22 21:41 | 55.49946 | 13.38385 | 735 ft | 124 kts | 349° |
| 2026-04-22 21:41 | 55.50815 | 13.38201 | 570 ft | 125 kts | 350° |
| 2026-04-22 21:42 | 55.51665 | 13.38024 | 391 ft | 122 kts | 351° |
| 2026-04-22 21:42 | 55.52506 | 13.37848 | 252 ft | 121 kts | 351° |
| 2026-04-22 21:42 | 55.53241 | 13.37698 | 238 ft | 86 kts | 353° |
| 2026-04-22 21:42 | 55.53697 | 13.37606 | 237 ft | 53 kts | 353° |
| 2026-04-22 21:43 | 55.53982 | 13.37545 | 241 ft | 28 kts | 353° |
| 2026-04-22 21:43 | 55.54149 | 13.37507 | 239 ft | 22 kts | 351° |
| 2026-04-22 21:43 | 55.54220 | 13.37387 | 236 ft | 17 kts | 260° |
| 2026-04-22 21:43 | 55.54201 | 13.37166 | 230 ft | 18 kts | 252° |
| 2026-04-22 21:44 | 55.54173 | 13.36955 | 230 ft | 17 kts | 264° |
| 2026-04-22 21:44 | 55.54154 | 13.36839 | 231 ft | 7 kts | 188° |
| 2026-04-22 21:44 | 55.54113 | 13.36848 | 231 ft | 2 kts | 173° |
| 2026-04-22 21:44 | 55.54101 | 13.36851 | 230 ft | 2 kts | 173° |
| 2026-04-22 21:45 | 55.54097 | 13.36852 | 230 ft | 0 kts | 173° |